Time;durP1;ratioP1;P1;durP2;ratioP2;P2;SDS_P1;SDS_P2;PMS_P1;PMS_P2;Temp;Humidity;BMP_temperature;BMP_pressure;BME280_temperature;BME280_humidity;BME280_pressure;Samples;Min_cycle;Max_cycle;Signal;HPM_P1;HPM_P2
2023/07/19 00:05:18;;;;;;;7.50;4.35;;;29.20;99.90;;;;;;1936621;72;22349;-80
2023/07/19 00:08:09;;;;;;;8.63;4.62;;;29.20;99.90;;;;;;1888452;75;21167;-81
2023/07/19 00:13:40;;;;;;;7.42;4.12;;;29.20;99.90;;;;;;1926461;72;22668;-80
2023/07/19 00:16:31;;;;;;;6.87;4.28;;;29.20;99.90;;;;;;1888606;75;21095;-81
2023/07/19 00:19:23;;;;;;;7.08;3.95;;;29.30;99.90;;;;;;1887729;75;21164;-80
2023/07/19 00:22:14;;;;;;;11.28;4.22;;;29.30;99.90;;;;;;1892307;75;21059;-81
2023/07/19 00:27:48;;;;;;;7.25;4.08;;;29.20;99.90;;;;;;1929986;72;22255;-80
2023/07/19 00:33:19;;;;;;;8.35;4.37;;;29.10;99.90;;;;;;1949843;72;22656;-80
2023/07/19 00:38:48;;;;;;;9.48;4.28;;;29.20;99.90;;;;;;1926932;72;22275;-80
2023/07/19 00:41:40;;;;;;;8.53;4.20;;;29.20;99.90;;;;;;1906491;75;21096;-80
2023/07/19 00:44:31;;;;;;;7.85;4.45;;;29.30;99.90;;;;;;1896002;75;21123;-80
2023/07/19 00:47:23;;;;;;;7.28;4.97;;;29.30;99.90;;;;;;1897239;75;21099;-80
2023/07/19 00:52:55;;;;;;;10.48;4.83;;;29.10;99.90;;;;;;1942702;72;22184;-80
2023/07/19 00:55:49;;;;;;;8.75;4.17;;;29.20;99.90;;;;;;1887876;75;21772;-80
2023/07/19 00:58:41;;;;;;;7.85;3.80;;;29.20;99.90;;;;;;1908273;75;21586;-80
2023/07/19 01:04:18;;;;;;;6.90;3.90;;;29.10;99.90;;;;;;1935262;72;22317;-80
2023/07/19 01:07:09;;;;;;;7.97;4.25;;;29.00;99.90;;;;;;1902589;75;21106;-82
2023/07/19 01:10:01;;;;;;;8.35;4.78;;;29.00;99.90;;;;;;1887542;75;21211;-80
2023/07/19 01:13:05;;;;;;;8.15;4.60;;;28.90;99.90;;;;;;1888462;75;21174;-80
2023/07/19 01:18:35;;;;;;;6.87;4.12;;;28.90;99.90;;;;;;1932427;72;22260;-80
2023/07/19 01:21:26;;;;;;;8.23;4.00;;;28.90;99.90;;;;;;1904575;75;21202;-80
2023/07/19 01:24:18;;;;;;;7.42;4.37;;;28.80;99.90;;;;;;1907426;75;21221;-80
2023/07/19 01:27:10;;;;;;;9.45;4.72;;;28.80;99.90;;;;;;1895598;75;21635;-80
2023/07/19 01:30:02;;;;;;;8.60;4.97;;;28.70;99.90;;;;;;1901303;75;21137;-80
2023/07/19 01:32:54;;;;;;;6.87;4.40;;;28.80;99.90;;;;;;1887146;75;21495;-80
2023/07/19 01:35:46;;;;;;;6.65;4.70;;;28.80;99.90;;;;;;1884676;75;21158;-80
2023/07/19 01:38:41;;;;;;;9.78;5.20;;;28.70;99.90;;;;;;1901795;75;21130;-80
2023/07/19 01:44:15;;;;;;;7.90;4.72;;;28.60;99.90;;;;;;1936389;72;22211;-80
2023/07/19 01:47:06;;;;;;;7.92;4.90;;;28.60;99.90;;;;;;1898374;75;21095;-80
2023/07/19 01:49:58;;;;;;;8.40;5.40;;;28.60;99.90;;;;;;1903293;75;21130;-80
2023/07/19 01:52:50;;;;;;;7.12;4.47;;;28.60;99.90;;;;;;1896667;75;21553;-80
2023/07/19 01:58:21;;;;;;;8.55;4.15;;;29.00;99.90;;;;;;1928647;72;22263;-81
2023/07/19 02:03:52;;;;;;;9.28;3.98;;;29.10;99.90;;;;;;1951293;72;22193;-80
2023/07/19 02:06:43;;;;;;;10.70;3.75;;;29.20;99.90;;;;;;1921156;73;21116;-80
2023/07/19 02:09:35;;;;;;;8.88;4.15;;;29.10;99.90;;;;;;1906634;74;21183;-80
2023/07/19 02:12:26;;;;;;;8.63;3.98;;;29.10;99.90;;;;;;1912073;74;21098;-80
2023/07/19 02:17:56;;;;;;;7.90;4.00;;;28.90;99.90;;;;;;1935200;72;22742;-80
2023/07/19 02:20:51;;;;;;;8.78;4.22;;;28.90;99.90;;;;;;1887415;75;21176;-80
2023/07/19 02:23:41;;;;;;;7.72;4.53;;;28.90;99.90;;;;;;1876327;75;21333;-81
2023/07/19 02:26:32;;;;;;;7.45;4.10;;;28.80;99.90;;;;;;1887334;75;21119;-80
2023/07/19 02:29:25;;;;;;;7.42;4.17;;;28.70;99.90;;;;;;1884893;75;21063;-80
2023/07/19 02:34:54;;;;;;;7.58;4.33;;;28.70;99.90;;;;;;1951580;72;22147;-80
2023/07/19 02:37:46;;;;;;;6.80;3.92;;;28.60;99.90;;;;;;1904177;75;21535;-80
2023/07/19 02:40:37;;;;;;;6.67;3.90;;;28.60;99.90;;;;;;1903446;75;21593;-80
2023/07/19 02:43:29;;;;;;;7.17;4.22;;;28.50;99.90;;;;;;1903828;75;21117;-80
2023/07/19 02:46:20;;;;;;;10.63;4.30;;;28.40;99.90;;;;;;1918815;74;21102;-80
2023/07/19 02:49:14;;;;;;;6.53;3.75;;;28.40;99.90;;;;;;1910011;74;21043;-80
2023/07/19 02:52:08;;;;;;;7.15;4.05;;;28.40;99.90;;;;;;1907244;74;21171;-80
2023/07/19 02:54:59;;;;;;;5.33;4.12;;;28.40;99.90;;;;;;1905723;74;21086;-81
2023/07/19 02:57:50;;;;;;;6.75;4.42;;;28.40;99.90;;;;;;1903807;75;21539;-80
2023/07/19 03:03:20;;;;;;;5.40;3.80;;;28.40;99.90;;;;;;1934903;72;22255;-78
2023/07/19 03:08:52;;;;;;;6.53;4.15;;;28.40;99.90;;;;;;1943157;72;22187;-80
2023/07/19 03:11:43;;;;;;;6.33;4.10;;;28.30;99.90;;;;;;1914343;74;21226;-80
2023/07/19 03:14:35;;;;;;;5.87;4.20;;;28.30;99.90;;;;;;1910070;75;21168;-81
2023/07/19 03:17:26;;;;;;;5.60;3.60;;;28.20;99.90;;;;;;1895733;75;21122;-81
2023/07/19 03:20:17;;;;;;;7.65;4.03;;;28.00;99.90;;;;;;1909360;74;21120;-81
2023/07/19 03:23:08;;;;;;;5.72;3.65;;;27.80;99.90;;;;;;1905420;74;21122;-80
2023/07/19 03:26:01;;;;;;;4.20;3.47;;;27.80;99.90;;;;;;1885496;75;21106;-81
2023/07/19 03:28:52;;;;;;;4.72;3.40;;;27.80;99.90;;;;;;1915287;75;21631;-81
2023/07/19 03:34:23;;;;;;;6.85;3.52;;;27.80;99.90;;;;;;1956818;72;22205;-81
2023/07/19 03:37:14;;;;;;;5.58;3.87;;;27.80;99.90;;;;;;1925163;73;21075;-81
2023/07/19 03:42:49;;;;;;;6.00;3.67;;;27.70;99.90;;;;;;1932616;72;22691;-81
2023/07/19 03:45:42;;;;;;;4.80;3.77;;;27.70;99.90;;;;;;1935877;73;21215;-82
2023/07/19 03:48:35;;;;;;;6.45;4.12;;;27.60;99.90;;;;;;1898120;73;21203;-82
2023/07/19 03:51:26;;;;;;;7.50;4.28;;;27.50;99.90;;;;;;1924690;73;21082;-82
2023/07/19 03:54:18;;;;;;;5.62;4.22;;;27.40;99.90;;;;;;1904384;73;21187;-80
2023/07/19 03:57:10;;;;;;;9.95;3.83;;;27.30;99.90;;;;;;1910045;74;21161;-81
2023/07/19 04:00:03;;;;;;;5.40;3.67;;;27.20;99.90;;;;;;1897678;75;21082;-82
2023/07/19 04:02:58;;;;;;;4.87;4.33;;;27.20;99.90;;;;;;1905377;75;21241;-81
2023/07/19 04:08:28;;;;;;;5.60;4.05;;;27.20;99.90;;;;;;1935131;72;22211;-81
2023/07/19 04:13:59;;;;;;;8.00;4.00;;;27.20;99.90;;;;;;1949769;72;22587;-80
2023/07/19 04:16:50;;;;;;;5.28;3.58;;;27.20;99.90;;;;;;1913534;74;21195;-81
2023/07/19 04:19:42;;;;;;;4.22;3.70;;;27.10;99.90;;;;;;1893935;75;21739;-81
2023/07/19 04:27:52;;;;;;;5.00;3.12;;;26.90;99.90;;;;;;1930217;72;22180;-81
2023/07/19 04:30:45;;;;;;;4.35;3.40;;;27.00;99.90;;;;;;1886922;75;21463;-80
2023/07/19 04:33:39;;;;;;;4.90;3.37;;;27.00;99.90;;;;;;1899017;75;21131;-81
2023/07/19 04:36:31;;;;;;;6.45;4.03;;;26.90;99.90;;;;;;1887593;75;21099;-82
2023/07/19 04:39:22;;;;;;;9.20;3.35;;;26.90;99.90;;;;;;1886473;75;21104;-81
2023/07/19 04:42:15;;;;;;;4.78;3.33;;;26.80;99.90;;;;;;1893056;75;21146;-82
2023/07/19 04:47:51;;;;;;;6.78;3.47;;;26.60;99.90;;;;;;1937016;72;22283;-81
2023/07/19 04:53:21;;;;;;;7.25;3.60;;;26.70;99.90;;;;;;1954411;72;22280;-74
2023/07/19 04:56:13;;;;;;;7.67;3.42;;;26.60;99.90;;;;;;1944083;73;21175;-75
2023/07/19 04:59:04;;;;;;;4.17;3.30;;;26.50;99.90;;;;;;1929006;73;21165;-75
2023/07/19 05:01:57;;;;;;;6.67;3.85;;;26.60;99.90;;;;;;1921115;73;21090;-76
2023/07/19 05:07:29;;;;;;;4.08;3.30;;;26.60;99.90;;;;;;1925227;72;22117;-75
2023/07/19 05:13:10;;;;;;;4.05;3.20;;;26.60;99.90;;;;;;1942845;72;22224;-74
2023/07/19 05:16:03;;;;;;;5.90;3.45;;;26.50;99.90;;;;;;1913981;74;21103;-71
2023/07/19 05:18:54;;;;;;;5.62;3.20;;;26.60;99.90;;;;;;1913396;74;21236;-71
2023/07/19 05:21:46;;;;;;;4.25;3.05;;;26.60;99.90;;;;;;1926137;73;21409;-70
2023/07/19 05:24:37;;;;;;;4.12;3.35;;;26.50;99.90;;;;;;1921870;74;21127;-70
2023/07/19 05:27:29;;;;;;;3.85;3.10;;;26.50;99.90;;;;;;1909020;74;21572;-70
2023/07/19 05:33:02;;;;;;;8.23;3.67;;;26.70;99.90;;;;;;1943629;72;22286;-71
2023/07/19 05:35:54;;;;;;;4.87;3.30;;;26.80;99.90;;;;;;1923119;73;21134;-70
2023/07/19 05:38:45;;;;;;;8.48;3.65;;;26.90;99.90;;;;;;1924887;73;21071;-71
2023/07/19 05:41:36;;;;;;;4.95;3.30;;;26.90;99.90;;;;;;1919021;73;21106;-71
2023/07/19 05:44:27;;;;;;;6.15;2.95;;;26.90;99.90;;;;;;1921492;73;21134;-71
2023/07/19 05:50:01;;;;;;;4.72;3.45;;;27.00;99.90;;;;;;1947343;72;22097;-76
2023/07/19 05:55:33;;;;;;;4.75;3.47;;;27.40;99.90;;;;;;1940707;72;22236;-78
2023/07/19 05:58:24;;;;;;;6.72;3.92;;;27.30;99.90;;;;;;1899501;75;21218;-78
2023/07/19 06:03:54;;;;;;;6.47;3.75;;;27.30;99.90;;;;;;1944272;72;22125;-79
2023/07/19 06:06:46;;;;;;;6.33;3.75;;;27.40;99.90;;;;;;1908844;74;21687;-80
2023/07/19 06:09:37;;;;;;;5.03;3.80;;;27.40;99.90;;;;;;1909068;74;21204;-79
2023/07/19 06:15:11;;;;;;;6.45;4.17;;;27.40;99.90;;;;;;1943841;72;22661;-80
2023/07/19 06:18:04;;;;;;;5.20;3.58;;;27.40;99.90;;;;;;1927398;73;21126;-80
2023/07/19 06:20:55;;;;;;;7.62;3.95;;;27.40;99.90;;;;;;1930071;73;21086;-80
2023/07/19 06:26:26;;;;;;;10.82;3.50;;;27.50;99.90;;;;;;1946967;72;22131;-80
2023/07/19 06:31:55;;;;;;;7.15;3.60;;;27.60;99.90;;;;;;1942742;72;22204;-77
2023/07/19 06:34:46;;;;;;;7.70;3.55;;;27.40;99.90;;;;;;1904230;74;21119;-78
2023/07/19 06:40:21;;;;;;;8.78;3.40;;;27.00;99.90;;;;;;1936844;72;22288;-77
2023/07/19 06:43:12;;;;;;;5.70;3.20;;;26.90;99.90;;;;;;1905509;75;21119;-77
2023/07/19 06:48:43;;;;;;;4.87;3.62;;;26.90;99.90;;;;;;1951555;72;22429;-77
2023/07/19 06:54:15;;;;;;;6.92;3.60;;;26.80;99.90;;;;;;1946935;72;22158;-77
2023/07/19 06:57:09;;;;;;;6.75;3.40;;;26.70;99.90;;;;;;1916933;74;21174;-78
2023/07/19 07:00:03;;;;;;;4.92;3.40;;;26.70;99.90;;;;;;1905592;75;21566;-79
2023/07/19 07:02:54;;;;;;;6.17;3.45;;;26.80;99.90;;;;;;1905535;75;21215;-78
2023/07/19 07:05:48;;;;;;;6.55;3.67;;;26.90;99.90;;;;;;1918230;74;21141;-78
2023/07/19 07:08:40;;;;;;;6.30;3.65;;;26.90;99.90;;;;;;1912027;75;21091;-77
2023/07/19 07:11:31;;;;;;;4.72;3.22;;;26.90;99.90;;;;;;1914243;75;21142;-77
2023/07/19 07:14:34;;;;;;;5.83;3.35;;;26.90;99.90;;;;;;1915685;75;21086;-78
2023/07/19 07:17:27;;;;;;;5.42;3.70;;;26.90;99.90;;;;;;1907282;75;21233;-77
2023/07/19 07:20:18;;;;;;;6.85;3.20;;;27.00;99.90;;;;;;1912648;75;21547;-78
2023/07/19 07:23:09;;;;;;;6.20;3.70;;;27.10;99.90;;;;;;1910922;74;21196;-77
2023/07/19 07:26:02;;;;;;;5.00;3.22;;;27.20;99.90;;;;;;1912842;75;21150;-78
2023/07/19 07:31:37;;;;;;;6.17;3.50;;;27.30;99.90;;;;;;1942920;72;33034;-78
2023/07/19 07:34:29;;;;;;;7.72;3.33;;;27.50;99.90;;;;;;1920018;73;21132;-78
2023/07/19 07:40:01;;;;;;;4.03;3.20;;;27.40;99.90;;;;;;1939173;72;22169;-79
2023/07/19 07:45:31;;;;;;;3.92;3.22;;;27.40;99.90;;;;;;1947203;72;22661;-78
2023/07/19 07:51:04;;;;;;;5.80;3.35;;;27.50;99.90;;;;;;1924465;72;22206;-79
2023/07/19 07:53:56;;;;;;;4.67;3.27;;;27.40;99.90;;;;;;1911265;74;21359;-78
2023/07/19 07:56:48;;;;;;;4.97;3.30;;;27.50;99.90;;;;;;1899081;75;21561;-79
2023/07/19 07:59:40;;;;;;;6.03;3.20;;;27.40;99.90;;;;;;1916454;75;21537;-78
2023/07/19 08:02:31;;;;;;;6.20;3.50;;;27.40;99.90;;;;;;1916345;74;21156;-79
2023/07/19 08:08:04;;;;;;;6.65;3.83;;;27.50;99.90;;;;;;1928704;72;22242;-79
2023/07/19 08:13:33;;;;;;;6.17;3.58;;;27.60;99.90;;;;;;1933196;72;22228;-79
2023/07/19 08:19:04;;;;;;;4.33;3.40;;;27.60;99.90;;;;;;1937419;72;22213;-78
2023/07/19 08:21:59;;;;;;;5.10;3.45;;;27.60;99.90;;;;;;1906292;75;21104;-78
2023/07/19 08:24:50;;;;;;;5.58;3.98;;;27.60;99.90;;;;;;1912517;74;21524;-78
2023/07/19 08:27:42;;;;;;;8.55;3.72;;;27.70;99.90;;;;;;1909784;75;21078;-79
2023/07/19 08:33:12;;;;;;;4.60;3.70;;;27.80;99.90;;;;;;1938573;72;22755;-78
2023/07/19 08:36:05;;;;;;;4.72;3.70;;;27.90;99.90;;;;;;1897088;74;21050;-77
2023/07/19 08:41:38;;;;;;;6.42;3.90;;;28.10;99.90;;;;;;1948207;72;22141;-77
2023/07/19 08:44:30;;;;;;;6.40;3.70;;;28.10;99.90;;;;;;1894835;75;21102;-78
2023/07/19 08:47:21;;;;;;;5.12;3.77;;;28.10;99.90;;;;;;1903242;75;21130;-79
2023/07/19 08:50:14;;;;;;;4.45;3.55;;;28.20;99.90;;;;;;1915541;75;21141;-78
2023/07/19 08:55:46;;;;;;;5.60;3.70;;;28.20;99.90;;;;;;1936193;72;22165;-78
2023/07/19 08:58:40;;;;;;;8.10;3.62;;;28.30;99.90;;;;;;1892156;74;21185;-77
2023/07/19 09:04:13;;;;;;;5.95;3.50;;;28.20;99.90;;;;;;1942360;72;22138;-79
2023/07/19 09:07:06;;;;;;;6.35;3.95;;;28.40;99.90;;;;;;1904734;74;21159;-78
2023/07/19 09:09:57;;;;;;;5.33;3.30;;;28.40;99.90;;;;;;1883784;76;21139;-79
2023/07/19 09:15:29;;;;;;;7.03;3.62;;;28.40;99.90;;;;;;1941594;72;22193;-78
2023/07/19 09:18:20;;;;;;;4.90;3.75;;;28.50;99.90;;;;;;1896165;75;21189;-79
2023/07/19 09:23:57;;;;;;;5.47;3.97;;;28.60;99.90;;;;;;1941799;72;34866;-78
2023/07/19 09:29:32;;;;;;;4.87;3.50;;;28.60;99.90;;;;;;1940187;72;22202;-78
2023/07/19 09:32:24;;;;;;;6.85;3.83;;;28.60;99.90;;;;;;1893286;75;21171;-78
2023/07/19 09:35:16;;;;;;;10.58;4.25;;;28.70;99.90;;;;;;1875816;75;21063;-79
2023/07/19 09:40:47;;;;;;;7.42;3.70;;;28.90;99.90;;;;;;1946951;72;22168;-77
2023/07/19 09:43:38;;;;;;;7.25;3.87;;;28.90;99.90;;;;;;1905320;74;21224;-78
2023/07/19 09:46:30;;;;;;;5.03;3.80;;;28.90;99.90;;;;;;1907353;74;21085;-78
2023/07/19 09:52:02;;;;;;;4.42;3.40;;;28.90;99.90;;;;;;1934723;72;23390;-79
2023/07/19 09:54:56;;;;;;;5.58;3.60;;;28.90;99.90;;;;;;1885539;75;21560;-79
2023/07/19 09:57:49;;;;;;;7.45;3.98;;;29.00;99.90;;;;;;1889055;75;21114;-78
2023/07/19 10:03:22;;;;;;;6.90;3.80;;;29.00;99.90;;;;;;1935446;72;22192;-78
2023/07/19 10:09:00;;;;;;;5.92;3.70;;;29.10;99.90;;;;;;1940780;72;22380;-81
2023/07/19 10:11:52;;;;;;;6.83;3.80;;;29.00;99.90;;;;;;1914906;75;21624;-78
2023/07/19 10:14:52;;;;;;;4.42;3.95;;;29.10;99.90;;;;;;1892609;75;21467;-79
2023/07/19 10:17:55;;;;;;;8.55;3.80;;;29.10;99.90;;;;;;1877392;76;21192;-78
2023/07/19 10:20:49;;;;;;;8.20;4.33;;;29.20;99.90;;;;;;1901708;75;21093;-78
2023/07/19 10:23:42;;;;;;;6.45;3.75;;;29.20;99.90;;;;;;1883575;76;21180;-78
2023/07/19 10:26:36;;;;;;;7.42;3.98;;;29.20;99.90;;;;;;1891996;75;21109;-80
2023/07/19 10:29:29;;;;;;;4.97;3.15;;;29.40;99.90;;;;;;1894666;75;21192;-79
2023/07/19 10:32:23;;;;;;;4.85;3.20;;;29.30;99.90;;;;;;1895611;75;21226;-79
2023/07/19 10:35:32;;;;;;;4.30;3.22;;;29.30;99.90;;;;;;1900231;75;21654;-79
2023/07/19 10:38:26;;;;;;;5.00;3.40;;;29.30;99.90;;;;;;1883925;76;21143;-78
2023/07/19 10:41:19;;;;;;;5.03;3.10;;;29.20;99.90;;;;;;1883779;75;21232;-80
2023/07/19 10:44:11;;;;;;;4.85;4.05;;;29.20;99.90;;;;;;1896718;75;21092;-79
2023/07/19 10:47:04;;;;;;;3.90;3.33;;;29.20;99.90;;;;;;1884044;76;21092;-79
2023/07/19 10:49:55;;;;;;;6.37;2.98;;;29.30;99.90;;;;;;1901222;75;21134;-79
2023/07/19 10:52:47;;;;;;;3.85;3.30;;;29.40;99.90;;;;;;1883957;76;21114;-79
2023/07/19 10:55:39;;;;;;;5.87;3.33;;;29.40;99.90;;;;;;1890587;75;21078;-80
2023/07/19 10:58:33;;;;;;;6.40;3.55;;;29.40;99.90;;;;;;1894423;75;21118;-81
2023/07/19 11:01:29;;;;;;;7.58;3.60;;;29.40;99.90;;;;;;1916143;75;21168;-79
2023/07/19 11:04:19;;;;;;;5.25;3.45;;;29.40;99.90;;;;;;1916338;75;21106;-78
2023/07/19 11:07:11;;;;;;;5.45;3.30;;;29.50;99.90;;;;;;1894359;75;21121;-79
2023/07/19 11:10:04;;;;;;;5.83;3.70;;;29.50;99.90;;;;;;1893985;75;21135;-79
2023/07/19 11:12:56;;;;;;;6.70;3.83;;;29.50;99.90;;;;;;1895188;75;21548;-79
2023/07/19 11:15:51;;;;;;;8.30;3.65;;;29.70;99.90;;;;;;1879244;76;21184;-79
2023/07/19 11:18:43;;;;;;;5.67;3.80;;;29.60;99.90;;;;;;1848632;77;21168;-80
2023/07/19 11:21:34;;;;;;;5.67;3.83;;;29.70;99.90;;;;;;1891908;75;21150;-79
2023/07/19 11:27:16;;;;;;;6.40;3.60;;;29.80;99.90;;;;;;1975316;72;22240;-79
2023/07/19 11:30:10;;;;;;;4.55;3.12;;;29.70;99.90;;;;;;1916752;75;21580;-81
2023/07/19 11:33:06;;;;;;;6.42;3.60;;;29.80;99.90;;;;;;1924922;73;21486;-79
2023/07/19 11:35:58;;;;;;;4.70;3.12;;;29.70;99.90;;;;;;1923673;73;21135;-81
2023/07/19 11:38:51;;;;;;;6.95;3.40;;;29.70;99.90;;;;;;1916787;75;21087;-78
2023/07/19 11:41:45;;;;;;;5.65;3.27;;;29.80;99.90;;;;;;1916821;75;21095;-79
2023/07/19 11:44:43;;;;;;;8.68;3.17;;;29.90;99.90;;;;;;1917054;75;21152;-79
2023/07/19 11:47:35;;;;;;;5.37;3.50;;;30.00;99.90;;;;;;1916724;75;21586;-78
2023/07/19 11:50:33;;;;;;;4.40;3.30;;;30.10;99.90;;;;;;1939499;73;21627;-79
2023/07/19 11:53:31;;;;;;;4.83;3.40;;;30.30;99.90;;;;;;1917144;73;21092;-79
2023/07/19 11:56:23;;;;;;;5.53;3.70;;;30.20;99.90;;;;;;1932299;73;21093;-79
2023/07/19 11:59:16;;;;;;;4.72;2.77;;;30.30;99.90;;;;;;1929319;73;21170;-80
2023/07/19 12:02:08;;;;;;;6.75;3.50;;;30.30;99.90;;;;;;1919918;73;21087;-78
2023/07/19 12:05:00;;;;;;;8.98;3.60;;;30.20;99.90;;;;;;1916190;75;21109;-79
2023/07/19 12:07:52;;;;;;;7.55;3.80;;;30.30;99.90;;;;;;1916504;75;21493;-78
2023/07/19 12:10:44;;;;;;;5.67;3.83;;;30.30;99.90;;;;;;1916727;75;21086;-81
2023/07/19 12:13:36;;;;;;;8.65;4.22;;;30.40;99.90;;;;;;1916648;75;21111;-79
2023/07/19 12:16:28;;;;;;;6.78;3.98;;;30.30;99.90;;;;;;1916649;75;21122;-78
2023/07/19 12:19:19;;;;;;;4.00;3.15;;;30.40;99.90;;;;;;1916741;75;21171;-80
2023/07/19 12:22:11;;;;;;;4.85;4.12;;;30.60;99.90;;;;;;1933466;73;21106;-80
2023/07/19 12:25:04;;;;;;;4.50;3.37;;;30.50;99.90;;;;;;1916534;75;21518;-80
2023/07/19 12:27:55;;;;;;;6.33;4.03;;;30.50;99.90;;;;;;1916822;74;21209;-77
2023/07/19 12:30:47;;;;;;;5.85;3.90;;;30.40;99.90;;;;;;1916530;75;21098;-79
2023/07/19 12:33:39;;;;;;;6.85;3.90;;;30.50;99.90;;;;;;1935421;73;21082;-78
2023/07/19 12:36:30;;;;;;;4.78;3.80;;;30.60;99.90;;;;;;1904272;75;21055;-77
2023/07/19 12:42:11;;;;;;;5.05;3.22;;;30.80;99.90;;;;;;1952129;72;22149;-78
2023/07/19 12:45:02;;;;;;;6.15;3.95;;;30.80;99.90;;;;;;1916575;75;21654;-80
2023/07/19 12:47:53;;;;;;;6.37;4.28;;;31.00;99.90;;;;;;1928908;73;21098;-79
2023/07/19 12:50:45;;;;;;;5.33;4.15;;;30.90;99.90;;;;;;1921200;73;21099;-78
2023/07/19 12:53:39;;;;;;;6.00;4.00;;;30.80;99.90;;;;;;1916484;75;21136;-79
2023/07/19 12:56:34;;;;;;;6.97;4.30;;;30.80;99.90;;;;;;1916680;75;21085;-78
2023/07/19 12:59:30;;;;;;;11.43;4.37;;;30.80;99.90;;;;;;1916456;75;21587;-79
2023/07/19 13:02:23;;;;;;;5.90;3.80;;;30.80;99.90;;;;;;1916568;75;21058;-78
2023/07/19 13:05:16;;;;;;;4.45;3.62;;;31.00;99.90;;;;;;1922593;73;21164;-79
2023/07/19 13:08:09;;;;;;;6.97;3.72;;;31.10;99.90;;;;;;1951673;73;21302;-80
2023/07/19 13:11:05;;;;;;;4.92;4.33;;;31.20;99.90;;;;;;1916431;75;21091;-78
2023/07/19 13:13:58;;;;;;;4.87;3.25;;;31.20;99.90;;;;;;1917054;75;21154;-80
2023/07/19 13:16:58;;;;;;;13.50;4.53;;;31.10;99.90;;;;;;1916853;75;21223;-81
2023/07/19 13:19:56;;;;;;;6.58;3.62;;;30.90;99.90;;;;;;1916686;75;21534;-79
2023/07/19 13:22:51;;;;;;;7.15;4.72;;;31.00;99.90;;;;;;1916728;75;21090;-79
2023/07/19 13:25:43;;;;;;;5.87;4.50;;;31.00;99.90;;;;;;1916448;75;21203;-79
2023/07/19 13:28:35;;;;;;;6.12;3.50;;;31.00;99.90;;;;;;1931054;73;21135;-80
2023/07/19 13:31:27;;;;;;;5.85;4.40;;;30.90;99.90;;;;;;1927687;73;21113;-81
2023/07/19 13:34:21;;;;;;;7.08;4.47;;;30.80;99.90;;;;;;1923492;73;21121;-79
2023/07/19 13:37:12;;;;;;;5.90;3.65;;;30.90;99.90;;;;;;1937976;73;21101;-78
2023/07/19 13:40:07;;;;;;;10.32;4.62;;;30.90;99.90;;;;;;1916778;75;21200;-80
2023/07/19 13:42:59;;;;;;;8.08;4.58;;;30.90;99.90;;;;;;1925809;74;21155;-78
2023/07/19 13:45:50;;;;;;;5.53;4.05;;;30.80;99.90;;;;;;1926008;74;21113;-78
2023/07/19 13:48:42;;;;;;;5.10;3.85;;;30.80;99.90;;;;;;1926955;73;21142;-79
2023/07/19 13:51:33;;;;;;;6.87;4.70;;;30.80;99.90;;;;;;1942205;73;21134;-78
2023/07/19 13:54:25;;;;;;;9.70;5.08;;;30.80;99.90;;;;;;1925401;74;21137;-79
2023/07/19 13:57:16;;;;;;;8.08;4.72;;;30.90;99.90;;;;;;1925461;74;21148;-79
2023/07/19 14:00:11;;;;;;;5.70;4.22;;;31.00;99.90;;;;;;1924861;74;21170;-80
2023/07/19 14:03:03;;;;;;;5.47;3.98;;;31.10;99.90;;;;;;1845243;78;21145;-78
2023/07/19 14:05:54;;;;;;;7.30;4.55;;;31.10;99.90;;;;;;1878474;76;21357;-78
2023/07/19 14:08:48;;;;;;;6.87;4.80;;;31.00;99.90;;;;;;1916842;74;21110;-79
2023/07/19 14:11:42;;;;;;;7.22;5.20;;;31.40;99.90;;;;;;1915850;75;21611;-80
2023/07/19 14:14:34;;;;;;;6.87;4.83;;;31.70;99.90;;;;;;1915672;73;21607;-80
2023/07/19 14:17:27;;;;;;;7.90;4.70;;;32.10;99.90;;;;;;1916125;75;21098;-81
2023/07/19 14:20:24;;;;;;;7.92;4.62;;;32.00;99.90;;;;;;1916057;75;21181;-81
2023/07/19 14:23:16;;;;;;;7.45;5.08;;;31.90;99.90;;;;;;1915751;75;21168;-81
2023/07/19 14:26:10;;;;;;;5.53;4.83;;;31.90;99.90;;;;;;1917842;73;21215;-78
2023/07/19 14:29:02;;;;;;;6.53;4.75;;;31.70;99.90;;;;;;1930223;73;21573;-80
2023/07/19 14:31:55;;;;;;;6.40;4.28;;;31.50;99.90;;;;;;1929582;73;21167;-78
2023/07/19 14:34:47;;;;;;;7.90;5.15;;;31.30;99.90;;;;;;1917228;73;21110;-78
2023/07/19 14:37:38;;;;;;;10.00;5.30;;;31.30;99.90;;;;;;1916036;75;21119;-80
2023/07/19 14:40:34;;;;;;;6.30;4.90;;;31.40;99.90;;;;;;1915962;75;21156;-78
2023/07/19 14:43:26;;;;;;;8.80;5.15;;;31.60;99.90;;;;;;1922825;74;21147;-81
2023/07/19 14:46:22;;;;;;;14.85;5.28;;;31.60;99.90;;;;;;1901472;75;21906;-78
2023/07/19 14:49:15;;;;;;;10.40;4.75;;;32.10;99.90;;;;;;1917407;74;21114;-80
2023/07/19 14:52:09;;;;;;;9.03;4.70;;;32.10;99.90;;;;;;1904184;74;21565;-79
2023/07/19 14:55:01;;;;;;;10.25;5.47;;;32.00;99.90;;;;;;1910197;74;21098;-77
2023/07/19 14:57:53;;;;;;;8.70;5.00;;;32.30;99.90;;;;;;1912818;74;21120;-77
2023/07/19 15:00:47;;;;;;;7.97;4.62;;;32.40;99.90;;;;;;1923470;74;21316;-77
2023/07/19 15:03:40;;;;;;;5.65;4.70;;;33.00;99.90;;;;;;1917755;74;21120;-77
2023/07/19 15:06:32;;;;;;;7.65;4.65;;;33.30;99.90;;;;;;1923661;74;21103;-78
2023/07/19 15:09:24;;;;;;;6.95;4.28;;;33.20;99.90;;;;;;1914431;74;21151;-79
2023/07/19 15:12:16;;;;;;;6.92;4.97;;;33.60;99.90;;;;;;1910731;74;21091;-78
2023/07/19 15:15:09;;;;;;;4.75;4.22;;;33.60;99.90;;;;;;1904079;74;21193;-81
2023/07/19 15:18:00;;;;;;;9.10;4.55;;;33.80;99.90;;;;;;1923575;74;21600;-80
2023/07/19 15:20:52;;;;;;;6.53;4.40;;;33.80;99.90;;;;;;1916280;74;21106;-80
2023/07/19 15:23:44;;;;;;;6.17;4.53;;;33.90;99.90;;;;;;1912408;74;21090;-78
2023/07/19 15:26:37;;;;;;;8.43;4.42;;;33.90;99.90;;;;;;1909066;74;21164;-78
2023/07/19 15:32:09;;;;;;;7.25;4.45;;;33.90;99.90;;;;;;1954693;72;22228;-80
2023/07/19 15:35:01;;;;;;;5.62;5.03;;;34.10;99.90;;;;;;1930000;73;21149;-80
2023/07/19 15:37:52;;;;;;;7.53;5.22;;;34.30;99.90;;;;;;1919311;73;21074;-78
2023/07/19 15:40:43;;;;;;;6.65;4.25;;;34.00;99.90;;;;;;1916354;75;21207;-78
2023/07/19 15:43:35;;;;;;;6.80;4.50;;;33.80;99.80;;;;;;1916225;75;21094;-80
2023/07/19 15:46:26;;;;;;;6.60;4.25;;;33.90;99.80;;;;;;1916400;75;21098;-81
2023/07/19 15:49:17;;;;;;;7.60;4.58;;;33.90;99.40;;;;;;1916564;75;21159;-77
2023/07/19 15:54:52;;;;;;;6.10;3.87;;;33.90;98.90;;;;;;1953845;72;22315;-79
2023/07/19 15:57:44;;;;;;;6.53;4.65;;;33.80;98.80;;;;;;1902012;75;21102;-78
2023/07/19 16:00:35;;;;;;;5.65;4.12;;;34.00;98.60;;;;;;1913728;75;21370;-80
2023/07/19 16:03:27;;;;;;;6.83;4.30;;;33.90;98.20;;;;;;1914029;75;21495;-78
2023/07/19 16:06:20;;;;;;;8.48;4.53;;;34.00;97.90;;;;;;1903267;75;21500;-77
2023/07/19 16:09:12;;;;;;;5.97;4.30;;;34.10;97.40;;;;;;1898006;75;21106;-77
2023/07/19 16:12:03;;;;;;;5.67;4.17;;;33.90;97.50;;;;;;1916521;75;21086;-79
2023/07/19 16:14:55;;;;;;;6.25;4.30;;;34.10;97.10;;;;;;1890045;75;21263;-79
2023/07/19 16:17:49;;;;;;;4.67;4.20;;;34.20;96.40;;;;;;1904967;75;21094;-80
2023/07/19 16:20:41;;;;;;;7.58;4.20;;;34.10;96.50;;;;;;1900780;75;21233;-80
2023/07/19 16:23:33;;;;;;;8.35;4.80;;;34.30;96.00;;;;;;1895529;75;21106;-78
2023/07/19 16:26:24;;;;;;;4.08;3.35;;;34.30;95.70;;;;;;1887764;75;21314;-80
2023/07/19 16:29:19;;;;;;;7.90;4.60;;;34.30;95.50;;;;;;1905891;75;21104;-79
2023/07/19 16:32:11;;;;;;;7.53;4.40;;;34.50;95.40;;;;;;1902833;75;21142;-78
2023/07/19 16:35:02;;;;;;;5.47;4.15;;;34.50;94.50;;;;;;1897530;75;21498;-80
2023/07/19 16:37:55;;;;;;;4.62;4.10;;;34.50;94.70;;;;;;1886256;75;21701;-80
2023/07/19 16:40:46;;;;;;;7.72;4.20;;;34.30;94.40;;;;;;1886403;75;21051;-78
2023/07/19 16:43:38;;;;;;;6.45;4.20;;;34.30;94.20;;;;;;1897711;75;21118;-80
2023/07/19 16:46:29;;;;;;;6.55;4.33;;;34.50;94.00;;;;;;1897933;75;21117;-79
2023/07/19 16:49:20;;;;;;;5.08;3.90;;;34.20;94.00;;;;;;1895147;75;21090;-80
2023/07/19 16:52:14;;;;;;;6.03;4.10;;;34.20;94.00;;;;;;1894661;75;21176;-79
2023/07/19 16:55:07;;;;;;;4.17;3.50;;;34.20;93.90;;;;;;1907099;74;21635;-78
2023/07/19 16:58:02;;;;;;;5.45;3.60;;;34.20;92.80;;;;;;1899798;74;21113;-79
2023/07/19 17:00:51;;;;;;;4.70;3.47;;;34.30;92.70;;;;;;1921811;74;21113;-79
2023/07/19 17:03:42;;;;;;;5.40;3.80;;;34.20;92.30;;;;;;1899316;74;21129;-79
2023/07/19 17:06:34;;;;;;;4.05;2.80;;;34.00;92.10;;;;;;1898893;74;21656;-81
2023/07/19 17:09:25;;;;;;;6.50;3.62;;;34.00;92.00;;;;;;1914138;74;21378;-79
2023/07/19 17:12:17;;;;;;;5.40;3.62;;;33.70;91.90;;;;;;1910766;74;21062;-79
2023/07/19 17:15:10;;;;;;;5.15;3.35;;;33.10;92.60;;;;;;1903292;74;21156;-78
2023/07/19 17:18:02;;;;;;;4.58;3.52;;;33.30;92.00;;;;;;1900752;74;21091;-78
2023/07/19 17:20:54;;;;;;;4.58;3.40;;;33.60;91.30;;;;;;1912945;74;21178;-78
2023/07/19 17:23:46;;;;;;;4.40;3.65;;;33.40;91.30;;;;;;1912286;74;21113;-77
2023/07/19 17:26:37;;;;;;;5.75;3.05;;;33.20;91.10;;;;;;1826758;77;21164;-78
2023/07/19 17:29:29;;;;;;;4.53;3.05;;;32.80;91.10;;;;;;1902237;74;21628;-81